Wayne, Montana
Current Conditions -  °F | °C
As of 8:56 PM on Wednesday 26 Nov 2014 (Local Time) from KGFA Reporting Station
Moderate Fog Moderate Fog  
Wind Chill: 26°   Ceiling: 200
Heat Index: 26°   Visibility: 0.37mi
Dew Point: 26°   Wind: 1mph
Humidity: 100%   Direction: NA
Pressure: 30.05"   Gusts: NA
Location:  47.3298°N, 110.893°W
Report Text: KGFA 270356Z AUTO VRB01KT 3/8SM FZFG VV002 M03/M03 A3005 RMK AO2 SLP218 T10341030
Loading
Personal Weather Stations






























Interactive Weather Map New forecast layout! Learn more

10-Day Weather Forecast

Advertisements
Track Severe Weather on mobile